createdAt,value
2019-03-31T00:00:05.707Z,8.77
2019-03-31T00:02:10.618Z,8.69
2019-03-31T00:04:15.042Z,8.60
2019-03-31T00:06:19.377Z,8.57
2019-03-31T00:08:23.690Z,8.53
2019-03-31T00:10:28.091Z,8.46
2019-03-31T00:12:32.422Z,8.43
2019-03-31T00:14:36.754Z,8.39
2019-03-31T00:16:41.285Z,8.31
2019-03-31T00:18:45.663Z,8.27
2019-03-31T00:20:50.913Z,8.21
2019-03-31T00:22:55.216Z,8.21
2019-03-31T00:24:59.541Z,8.14
2019-03-31T00:27:03.847Z,8.07
2019-03-31T00:29:08.246Z,8.04
2019-03-31T00:31:22.003Z,7.99
2019-03-31T00:33:18.735Z,7.92
2019-03-31T00:35:23.059Z,7.91
2019-03-31T00:37:28.400Z,7.87
2019-03-31T00:39:32.808Z,7.80
2019-03-31T00:41:37.131Z,7.77
2019-03-31T00:43:41.486Z,7.74
2019-03-31T00:45:46.801Z,7.72
2019-03-31T00:47:51.179Z,7.69
2019-03-31T00:49:55.526Z,7.64
2019-03-31T00:51:59.825Z,7.59
2019-03-31T00:54:05.252Z,7.54
2019-03-31T00:56:09.595Z,7.47
2019-03-31T00:58:13.909Z,7.46
2019-03-31T01:00:47.293Z,7.40
2019-03-31T01:02:51.769Z,7.36
2019-03-31T01:04:56.128Z,7.32
2019-03-31T01:07:01.213Z,7.26
2019-03-31T01:09:20.028Z,7.25
2019-03-31T01:11:25.479Z,7.27
2019-03-31T01:13:30.881Z,7.22
2019-03-31T01:15:35.688Z,7.13
2019-03-31T01:17:40.096Z,7.06
2019-03-31T01:19:44.916Z,7.01
2019-03-31T01:21:49.374Z,6.94
2019-03-31T01:23:53.873Z,6.94
2019-03-31T01:26:00.487Z,6.94
2019-03-31T01:28:04.641Z,6.92
2019-03-31T01:30:12.776Z,6.88
2019-03-31T01:32:17.270Z,6.83
2019-03-31T01:34:22.052Z,6.76
2019-03-31T01:36:26.363Z,6.70
2019-03-31T01:38:31.701Z,6.61
2019-03-31T01:40:37.133Z,6.58
2019-03-31T01:42:41.458Z,6.60
2019-03-31T01:44:47.807Z,6.62
2019-03-31T01:46:52.214Z,6.59
2019-03-31T01:48:56.568Z,6.62
2019-03-31T01:51:02.819Z,6.66
2019-03-31T01:53:13.170Z,6.63
2019-03-31T01:55:17.643Z,6.57
2019-03-31T01:57:21.904Z,6.55
2019-03-31T01:59:26.222Z,6.53
2019-03-31T02:01:30.895Z,6.54
2019-03-31T02:03:35.143Z,6.57
2019-03-31T02:05:39.630Z,6.55
2019-03-31T02:07:43.878Z,6.50
2019-03-31T02:09:48.200Z,6.49
2019-03-31T02:11:52.524Z,6.51
2019-03-31T02:13:56.816Z,6.42
2019-03-31T02:16:02.550Z,6.34
2019-03-31T02:18:06.965Z,6.30
2019-03-31T02:20:11.762Z,6.27
2019-03-31T02:22:16.033Z,6.23
2019-03-31T02:24:20.336Z,6.18
2019-03-31T02:26:24.667Z,6.20
2019-03-31T02:28:28.982Z,6.18
2019-03-31T02:30:33.310Z,6.14
2019-03-31T02:32:38.723Z,6.15
2019-03-31T02:34:43.057Z,6.12
2019-03-31T02:36:47.383Z,6.06
2019-03-31T02:38:51.689Z,6.05
2019-03-31T02:40:56.097Z,6.00
2019-03-31T02:43:00.641Z,5.96
2019-03-31T02:45:05.537Z,5.99
2019-03-31T02:47:10.781Z,6.01
2019-03-31T02:49:17.101Z,5.92
2019-03-31T02:51:21.362Z,5.87
2019-03-31T02:53:26.952Z,5.85
2019-03-31T02:55:31.771Z,5.86
2019-03-31T02:57:37.113Z,5.89
2019-03-31T02:59:42.433Z,5.89
2019-03-31T03:01:48.126Z,5.84
2019-03-31T03:03:53.232Z,5.79
2019-03-31T03:05:59.365Z,5.78
2019-03-31T03:08:04.129Z,5.77
2019-03-31T03:10:08.798Z,5.76
2019-03-31T03:12:14.159Z,5.73
2019-03-31T03:14:18.790Z,5.72
2019-03-31T03:16:23.269Z,5.70
2019-03-31T03:18:27.808Z,5.65
2019-03-31T03:20:31.993Z,5.63
2019-03-31T03:22:36.323Z,5.59
2019-03-31T03:24:40.708Z,5.53
2019-03-31T03:26:45.051Z,5.50
2019-03-31T03:28:49.516Z,5.49
2019-03-31T03:30:53.878Z,5.49
2019-03-31T03:33:15.006Z,5.44
2019-03-31T03:35:05.646Z,5.38
2019-03-31T03:37:11.019Z,5.34
2019-03-31T03:39:15.341Z,5.30
2019-03-31T03:41:19.651Z,5.24
2019-03-31T03:43:23.976Z,5.22
2019-03-31T03:45:28.352Z,5.21
2019-03-31T03:47:32.609Z,5.22
2019-03-31T03:49:36.997Z,5.20
2019-03-31T03:51:41.342Z,5.19
2019-03-31T03:53:45.656Z,5.16
2019-03-31T03:55:50.986Z,5.13
2019-03-31T03:57:55.581Z,5.08
2019-03-31T03:59:59.912Z,5.08
2019-03-31T04:02:04.308Z,5.04
2019-03-31T04:04:09.578Z,4.99
2019-03-31T04:06:14.985Z,4.95
2019-03-31T04:08:19.240Z,4.92
2019-03-31T04:11:20.807Z,4.88
2019-03-31T04:13:22.934Z,4.86
2019-03-31T04:15:33.099Z,4.85
2019-03-31T04:17:37.431Z,4.79
2019-03-31T04:19:42.776Z,4.75
2019-03-31T04:21:47.170Z,4.74
2019-03-31T04:23:51.587Z,4.69
2019-03-31T04:25:56.841Z,4.64
2019-03-31T04:28:01.232Z,4.62
2019-03-31T04:30:06.086Z,4.60
2019-03-31T04:32:10.384Z,4.56
2019-03-31T04:34:14.704Z,4.51
2019-03-31T04:36:19.185Z,4.46
2019-03-31T04:38:23.486Z,4.48
2019-03-31T04:40:27.833Z,4.44
2019-03-31T04:42:32.166Z,4.40
2019-03-31T04:44:36.497Z,4.41
2019-03-31T04:46:41.855Z,4.41
2019-03-31T04:48:46.141Z,4.41
2019-03-31T04:50:52.236Z,4.38
2019-03-31T04:52:56.617Z,4.32
2019-03-31T04:55:01.024Z,4.25
2019-03-31T04:57:05.418Z,4.25
2019-03-31T04:59:09.774Z,4.23
2019-03-31T05:01:14.092Z,4.26
2019-03-31T05:03:18.389Z,4.27
2019-03-31T05:05:23.749Z,4.23
2019-03-31T05:07:28.046Z,4.25
2019-03-31T05:09:32.375Z,4.26
2019-03-31T05:11:36.682Z,4.26
2019-03-31T05:13:41.027Z,4.25
2019-03-31T05:15:45.309Z,4.25
2019-03-31T05:17:49.543Z,4.25
2019-03-31T05:19:53.913Z,4.26
2019-03-31T05:21:58.244Z,4.23
2019-03-31T05:24:02.561Z,4.23
2019-03-31T05:26:07.001Z,4.21
2019-03-31T05:28:11.383Z,4.22
2019-03-31T05:30:16.328Z,4.25
2019-03-31T05:32:21.559Z,4.29
2019-03-31T05:34:25.892Z,4.32
2019-03-31T05:36:31.289Z,4.33
2019-03-31T05:38:35.530Z,4.39
2019-03-31T05:40:39.861Z,4.44
2019-03-31T05:42:45.266Z,4.45
2019-03-31T05:44:49.613Z,4.50
2019-03-31T05:46:53.915Z,4.54
2019-03-31T05:48:58.233Z,4.59
2019-03-31T05:51:02.563Z,4.62
2019-03-31T05:53:06.864Z,4.66
2019-03-31T05:55:11.350Z,4.72
2019-03-31T05:57:15.605Z,4.81
2019-03-31T05:59:19.926Z,4.89
2019-03-31T06:01:24.304Z,4.96
2019-03-31T06:03:28.642Z,5.05
2019-03-31T06:05:32.969Z,5.11
2019-03-31T06:07:37.277Z,5.18
2019-03-31T06:09:41.601Z,5.24
2019-03-31T06:11:45.987Z,5.32
2019-03-31T06:13:50.330Z,5.43
2019-03-31T06:15:54.657Z,5.55
2019-03-31T06:17:58.996Z,5.69
2019-03-31T06:20:03.350Z,5.81
2019-03-31T06:22:08.611Z,5.92
2019-03-31T06:24:12.927Z,6.04
2019-03-31T06:26:17.243Z,6.16
2019-03-31T06:28:21.562Z,6.28
2019-03-31T06:30:26.035Z,6.48
2019-03-31T06:32:30.288Z,6.82
2019-03-31T06:34:46.884Z,7.62
2019-03-31T06:36:40.729Z,9.15
2019-03-31T06:38:45.086Z,10.79
2019-03-31T06:40:51.697Z,12.39
2019-03-31T06:42:55.960Z,13.94
2019-03-31T06:45:00.391Z,15.29
2019-03-31T06:47:04.691Z,16.45
2019-03-31T06:49:09.004Z,17.40
2019-03-31T06:51:16.829Z,18.21
2019-03-31T06:53:19.481Z,18.97
2019-03-31T06:55:25.752Z,19.61
2019-03-31T06:57:31.089Z,20.07
2019-03-31T06:59:35.398Z,20.72
2019-03-31T07:01:39.717Z,21.39
2019-03-31T07:03:45.048Z,21.98
2019-03-31T07:05:49.369Z,22.42
2019-03-31T07:07:55.702Z,22.97
2019-03-31T07:10:00.051Z,23.35
2019-03-31T07:12:05.476Z,23.48
2019-03-31T07:14:09.791Z,23.76
2019-03-31T07:16:14.121Z,24.00
2019-03-31T07:18:18.387Z,24.32
2019-03-31T07:20:22.918Z,24.64
2019-03-31T07:22:28.176Z,25.11
2019-03-31T07:24:32.507Z,25.55
2019-03-31T07:26:36.832Z,25.83
2019-03-31T07:28:41.128Z,26.03
2019-03-31T07:30:45.450Z,26.33
2019-03-31T07:32:49.916Z,26.66
2019-03-31T07:34:54.186Z,26.79
2019-03-31T07:36:58.491Z,26.93
2019-03-31T07:39:04.693Z,27.14
2019-03-31T07:41:12.861Z,27.49
2019-03-31T07:43:16.297Z,28.05
2019-03-31T07:45:21.037Z,28.33
2019-03-31T07:47:25.406Z,28.66
2019-03-31T07:49:29.706Z,28.58
2019-03-31T07:51:37.356Z,28.50
2019-03-31T07:53:40.076Z,28.74
2019-03-31T07:55:44.413Z,28.82
2019-03-31T07:57:48.703Z,29.05
2019-03-31T07:59:56.424Z,29.16
2019-03-31T08:01:59.230Z,29.45
2019-03-31T08:04:03.600Z,29.83
2019-03-31T08:06:07.919Z,29.96
2019-03-31T08:08:13.258Z,30.12
2019-03-31T08:10:18.155Z,30.23
2019-03-31T08:12:22.495Z,30.38
2019-03-31T08:14:26.887Z,30.58
2019-03-31T08:16:31.230Z,30.80
2019-03-31T08:18:35.543Z,30.99
2019-03-31T08:20:39.935Z,31.14
2019-03-31T08:22:44.471Z,31.39
2019-03-31T08:24:48.805Z,31.70
2019-03-31T08:26:53.122Z,32.05
2019-03-31T08:28:58.754Z,32.14
2019-03-31T08:31:03.147Z,32.16
2019-03-31T08:33:07.560Z,31.89
2019-03-31T08:35:12.572Z,31.81
2019-03-31T08:37:16.834Z,31.79
2019-03-31T08:39:22.175Z,31.74
2019-03-31T08:41:26.499Z,31.86
2019-03-31T08:43:30.804Z,32.25
2019-03-31T08:45:41.168Z,32.50
2019-03-31T08:47:46.585Z,32.35
2019-03-31T08:49:50.919Z,31.94
2019-03-31T08:51:55.239Z,31.48
2019-03-31T08:53:59.546Z,31.44
2019-03-31T08:56:03.869Z,31.50
2019-03-31T08:58:10.220Z,31.86
2019-03-31T09:00:36.320Z,32.00
2019-03-31T09:02:40.655Z,31.63
2019-03-31T09:04:45.993Z,31.65
2019-03-31T09:06:50.321Z,31.65
2019-03-31T09:08:55.659Z,31.55
2019-03-31T09:11:01.000Z,31.84
2019-03-31T09:13:05.475Z,32.28
2019-03-31T09:15:11.850Z,32.41
2019-03-31T09:17:16.279Z,32.31
2019-03-31T09:19:20.526Z,32.13
2019-03-31T09:21:24.834Z,32.43
2019-03-31T09:23:29.134Z,32.67
2019-03-31T09:25:33.444Z,32.86
2019-03-31T09:27:37.776Z,32.93
2019-03-31T09:29:42.075Z,32.59
2019-03-31T09:31:46.402Z,32.18
2019-03-31T09:33:50.713Z,31.61
2019-03-31T09:35:55.103Z,31.52
2019-03-31T09:37:59.522Z,31.67
2019-03-31T09:40:04.318Z,32.05
2019-03-31T09:42:08.597Z,32.50
2019-03-31T09:44:12.904Z,32.84
2019-03-31T09:46:17.213Z,32.97
2019-03-31T09:48:21.617Z,33.15
2019-03-31T09:50:26.013Z,32.83
2019-03-31T09:52:30.600Z,32.63
2019-03-31T09:54:34.875Z,32.96
2019-03-31T09:56:39.206Z,33.38
2019-03-31T09:58:43.523Z,33.67
2019-03-31T10:00:49.496Z,33.55
2019-03-31T10:02:53.791Z,33.73
2019-03-31T10:04:58.102Z,33.75
2019-03-31T10:07:02.531Z,33.93
2019-03-31T10:09:07.842Z,34.05
2019-03-31T10:11:12.241Z,34.10
2019-03-31T10:13:16.595Z,34.04
2019-03-31T10:15:20.979Z,33.97
2019-03-31T10:17:25.323Z,34.02
2019-03-31T10:19:29.640Z,34.14
2019-03-31T10:21:33.966Z,34.29
2019-03-31T10:23:38.270Z,34.39
2019-03-31T10:25:42.735Z,34.07
2019-03-31T10:27:47.003Z,33.72
2019-03-31T10:29:51.318Z,33.52
2019-03-31T10:31:55.629Z,33.47
2019-03-31T10:33:59.948Z,33.29
2019-03-31T10:36:04.445Z,32.79
2019-03-31T10:38:08.958Z,32.34
2019-03-31T10:40:13.662Z,31.90
2019-03-31T10:42:17.925Z,31.66
2019-03-31T10:44:23.287Z,31.46
2019-03-31T10:46:27.578Z,31.27
2019-03-31T10:48:31.905Z,31.04
2019-03-31T10:50:37.232Z,30.79
2019-03-31T10:52:41.551Z,30.67
2019-03-31T10:54:46.066Z,30.68
2019-03-31T10:56:50.381Z,30.65
2019-03-31T10:58:55.729Z,30.60
2019-03-31T11:01:01.065Z,30.73
2019-03-31T11:03:07.360Z,31.05
2019-03-31T11:05:12.856Z,31.52
2019-03-31T11:07:17.184Z,31.94
2019-03-31T11:09:21.583Z,32.19
2019-03-31T11:11:25.919Z,32.51
2019-03-31T11:13:31.258Z,33.01
2019-03-31T11:15:36.759Z,33.53
2019-03-31T11:17:42.026Z,33.76
2019-03-31T11:19:46.357Z,33.69
2019-03-31T11:22:12.811Z,33.80
2019-03-31T11:24:17.102Z,34.17
2019-03-31T11:26:21.403Z,34.86
2019-03-31T11:28:25.800Z,35.31
2019-03-31T11:30:30.240Z,35.64
2019-03-31T11:32:34.557Z,36.00
2019-03-31T11:34:38.963Z,36.26
2019-03-31T11:36:44.314Z,36.41
2019-03-31T11:38:48.634Z,36.43
2019-03-31T11:40:52.946Z,36.44
2019-03-31T11:43:01.425Z,36.17
2019-03-31T11:45:06.375Z,35.15
2019-03-31T11:47:10.855Z,34.06
2019-03-31T11:49:15.200Z,33.22
2019-03-31T11:51:19.622Z,33.33
2019-03-31T11:53:24.882Z,33.99
2019-03-31T11:55:29.262Z,34.66
2019-03-31T11:57:33.612Z,35.09
2019-03-31T11:59:37.927Z,35.56
2019-03-31T12:01:42.302Z,36.00
2019-03-31T12:03:46.651Z,36.28
2019-03-31T12:05:51.140Z,36.55
2019-03-31T12:07:57.434Z,36.69
2019-03-31T12:10:01.759Z,36.71
2019-03-31T12:12:06.064Z,36.79
2019-03-31T12:14:11.407Z,36.75
2019-03-31T12:16:15.730Z,36.94
2019-03-31T12:18:20.188Z,36.85
2019-03-31T12:20:24.523Z,36.94
2019-03-31T12:22:28.757Z,37.13
2019-03-31T12:24:33.075Z,37.16
2019-03-31T12:26:37.411Z,37.01
2019-03-31T12:28:42.733Z,37.03
2019-03-31T12:30:47.050Z,37.17
2019-03-31T12:32:51.369Z,37.22
2019-03-31T12:34:55.689Z,37.29
2019-03-31T12:37:00.096Z,37.41
2019-03-31T12:39:06.384Z,37.43
2019-03-31T12:41:10.765Z,37.64
2019-03-31T12:43:15.153Z,37.69
2019-03-31T12:45:19.588Z,37.76
2019-03-31T12:47:23.930Z,37.84
2019-03-31T12:49:28.241Z,37.90
2019-03-31T12:51:32.547Z,37.84
2019-03-31T12:53:36.857Z,37.64
2019-03-31T12:55:41.208Z,37.28
2019-03-31T12:57:45.493Z,37.01
2019-03-31T12:59:49.802Z,36.85
2019-03-31T13:01:54.122Z,36.72
2019-03-31T13:03:58.447Z,36.80
2019-03-31T13:06:02.857Z,37.00
2019-03-31T13:08:07.283Z,37.34
2019-03-31T13:10:11.957Z,36.94
2019-03-31T13:12:16.244Z,36.25
2019-03-31T13:14:20.530Z,35.42
2019-03-31T13:16:25.101Z,34.78
2019-03-31T13:18:30.457Z,34.29
2019-03-31T13:20:34.820Z,33.75
2019-03-31T13:22:39.073Z,33.33
2019-03-31T13:24:45.371Z,33.14
2019-03-31T13:26:49.692Z,32.89
2019-03-31T13:28:53.995Z,32.49
2019-03-31T13:30:58.416Z,32.33
2019-03-31T13:33:02.746Z,32.11
2019-03-31T13:35:08.618Z,31.88
2019-03-31T13:37:13.120Z,31.71
2019-03-31T13:39:17.425Z,31.75
2019-03-31T13:41:21.742Z,31.64
2019-03-31T13:43:26.053Z,31.54
2019-03-31T13:45:30.449Z,31.36
2019-03-31T13:47:34.862Z,31.13
2019-03-31T13:49:39.199Z,30.83
2019-03-31T13:51:43.508Z,30.49
2019-03-31T13:53:47.827Z,30.16
2019-03-31T13:55:52.153Z,29.88
2019-03-31T13:57:58.080Z,29.62
2019-03-31T14:00:02.886Z,29.58
2019-03-31T14:02:07.150Z,29.70
2019-03-31T14:04:11.470Z,29.66
2019-03-31T14:06:15.810Z,29.64
2019-03-31T14:08:25.874Z,29.68
2019-03-31T14:10:27.640Z,29.75
2019-03-31T14:12:31.999Z,29.59
2019-03-31T14:14:36.315Z,29.35
2019-03-31T14:16:40.641Z,29.16
2019-03-31T14:18:44.942Z,28.97
2019-03-31T14:20:49.252Z,28.58
2019-03-31T14:22:53.504Z,28.31
2019-03-31T14:24:57.791Z,28.31
2019-03-31T14:27:02.129Z,28.23
2019-03-31T14:29:06.420Z,28.05
2019-03-31T14:31:10.797Z,27.85
2019-03-31T14:33:15.152Z,27.70
2019-03-31T14:35:20.574Z,27.69
2019-03-31T14:37:25.002Z,27.63
2019-03-31T14:39:29.325Z,27.68
2019-03-31T14:41:33.725Z,27.72
2019-03-31T14:43:39.160Z,27.62
2019-03-31T14:45:43.492Z,27.47
2019-03-31T14:47:47.824Z,27.31
2019-03-31T14:49:52.127Z,27.15
2019-03-31T14:51:56.444Z,26.98
2019-03-31T14:54:00.759Z,26.72
2019-03-31T14:56:05.816Z,26.46
2019-03-31T14:58:10.277Z,26.31
2019-03-31T15:00:15.564Z,26.23
2019-03-31T15:02:19.867Z,26.07
2019-03-31T15:04:24.178Z,25.90
2019-03-31T15:06:28.484Z,25.72
2019-03-31T15:08:32.818Z,25.61
2019-03-31T15:10:37.398Z,25.50
2019-03-31T15:12:41.829Z,25.37
2019-03-31T15:14:46.164Z,25.30
2019-03-31T15:16:51.587Z,25.34
2019-03-31T15:18:55.994Z,25.37
2019-03-31T15:21:00.338Z,25.30
2019-03-31T15:23:04.961Z,25.10
2019-03-31T15:25:09.462Z,24.86
2019-03-31T15:27:13.799Z,24.62
2019-03-31T15:29:18.108Z,24.52
2019-03-31T15:31:22.417Z,24.43
2019-03-31T15:33:27.773Z,24.14
2019-03-31T15:35:32.074Z,24.14
2019-03-31T15:37:36.399Z,23.73
2019-03-31T15:39:40.706Z,23.62
2019-03-31T15:41:45.014Z,23.38
2019-03-31T15:43:49.341Z,23.38
2019-03-31T15:45:54.667Z,23.28
2019-03-31T15:47:59.014Z,23.13
2019-03-31T15:50:03.403Z,22.99
2019-03-31T15:52:09.070Z,22.83
2019-03-31T15:54:14.489Z,22.69
2019-03-31T15:56:18.815Z,22.61
2019-03-31T15:58:23.125Z,22.54
2019-03-31T16:00:27.502Z,22.46
2019-03-31T16:02:31.857Z,22.35
2019-03-31T16:04:38.222Z,22.19
2019-03-31T16:06:42.638Z,22.01
2019-03-31T16:08:47.457Z,21.87
2019-03-31T16:10:52.275Z,21.80
2019-03-31T16:12:56.088Z,21.69
2019-03-31T16:14:59.956Z,21.61
2019-03-31T16:17:03.771Z,21.55
2019-03-31T16:19:07.592Z,21.48
2019-03-31T16:21:11.464Z,21.44
2019-03-31T16:23:15.310Z,21.37
2019-03-31T16:25:24.519Z,21.27
2019-03-31T16:27:29.364Z,21.22
2019-03-31T16:29:34.257Z,21.16
2019-03-31T16:31:38.080Z,21.09
2019-03-31T16:33:47.739Z,21.02
2019-03-31T16:35:58.493Z,20.96
2019-03-31T16:38:02.373Z,20.88
2019-03-31T16:40:06.544Z,20.76
2019-03-31T16:42:10.302Z,20.71
2019-03-31T16:44:14.113Z,20.68
2019-03-31T16:46:17.915Z,20.61
2019-03-31T16:48:21.710Z,20.52
2019-03-31T16:50:25.515Z,20.44
2019-03-31T16:52:29.318Z,20.40
2019-03-31T16:54:33.709Z,20.36
2019-03-31T16:56:37.543Z,20.22
2019-03-31T16:58:41.349Z,20.11
2019-03-31T17:00:46.159Z,20.02
2019-03-31T17:02:49.978Z,19.94
2019-03-31T17:04:57.032Z,19.82
2019-03-31T17:07:00.856Z,19.70
2019-03-31T17:09:06.730Z,19.53
2019-03-31T17:11:10.515Z,19.42
2019-03-31T17:13:14.318Z,19.27
2019-03-31T17:15:18.250Z,18.96
2019-03-31T17:17:23.042Z,18.65
2019-03-31T17:19:26.859Z,18.34
2019-03-31T17:21:30.648Z,18.09
2019-03-31T17:23:34.472Z,17.86
2019-03-31T17:25:38.192Z,17.65
2019-03-31T17:27:41.946Z,17.49
2019-03-31T17:29:45.758Z,17.33
2019-03-31T17:31:49.550Z,17.20
2019-03-31T17:33:53.647Z,17.06
2019-03-31T17:35:58.485Z,16.96
2019-03-31T17:38:04.319Z,16.83
2019-03-31T17:40:10.560Z,16.71
2019-03-31T17:42:14.388Z,16.58
2019-03-31T17:44:19.147Z,16.46
2019-03-31T17:46:22.925Z,16.31
2019-03-31T17:48:26.743Z,16.19
2019-03-31T17:50:33.622Z,16.09
2019-03-31T17:52:37.417Z,16.01
2019-03-31T17:54:41.231Z,15.91
2019-03-31T17:56:45.053Z,15.79
2019-03-31T17:58:48.839Z,15.70
2019-03-31T18:00:52.633Z,15.61
2019-03-31T18:02:57.362Z,15.54
2019-03-31T18:05:02.199Z,15.43
2019-03-31T18:07:05.995Z,15.36
2019-03-31T18:09:10.121Z,15.26
2019-03-31T18:11:14.991Z,15.13
2019-03-31T18:13:18.722Z,15.02
2019-03-31T18:15:23.528Z,14.92
2019-03-31T18:17:27.428Z,14.83
2019-03-31T18:19:31.169Z,14.74
2019-03-31T18:21:35.036Z,14.61
2019-03-31T18:23:38.757Z,14.49
2019-03-31T18:25:42.491Z,14.37
2019-03-31T18:27:46.266Z,14.25
2019-03-31T18:29:50.078Z,14.14
2019-03-31T18:31:53.944Z,14.01
2019-03-31T18:33:58.703Z,13.90
2019-03-31T18:36:02.658Z,13.81
2019-03-31T18:38:06.416Z,13.71
2019-03-31T18:40:10.569Z,13.60
2019-03-31T18:42:14.315Z,13.53
2019-03-31T18:44:18.127Z,13.41
2019-03-31T18:46:21.931Z,13.32
2019-03-31T18:48:25.718Z,13.21
2019-03-31T18:50:29.544Z,13.13
2019-03-31T18:52:33.333Z,13.04
2019-03-31T18:54:48.496Z,12.95
2019-03-31T18:57:11.329Z,12.85
2019-03-31T18:59:26.761Z,12.75
2019-03-31T19:01:48.262Z,12.63
2019-03-31T19:04:14.103Z,12.53
2019-03-31T19:06:30.904Z,12.40
2019-03-31T19:08:56.114Z,12.27
2019-03-31T19:11:21.665Z,12.18
2019-03-31T19:13:54.469Z,12.10
2019-03-31T19:16:04.925Z,12.02
2019-03-31T19:18:26.496Z,11.94
2019-03-31T19:20:48.786Z,11.85
2019-03-31T19:23:00.978Z,11.78
2019-03-31T19:25:32.720Z,11.72
2019-03-31T19:27:53.102Z,11.65
2019-03-31T19:30:15.955Z,11.55
2019-03-31T19:32:36.314Z,11.46
2019-03-31T19:34:47.068Z,11.39
2019-03-31T19:36:58.770Z,11.31
2019-03-31T19:39:20.418Z,11.22
2019-03-31T19:41:43.506Z,11.20
2019-03-31T19:43:57.176Z,11.13
2019-03-31T19:46:10.985Z,11.07
2019-03-31T19:48:32.393Z,11.02
2019-03-31T19:50:57.135Z,10.97
2019-03-31T19:53:32.050Z,10.92
2019-03-31T19:55:51.711Z,10.85
2019-03-31T19:58:03.732Z,10.77
2019-03-31T20:00:26.043Z,10.71
2019-03-31T20:02:47.116Z,10.65
2019-03-31T20:05:09.194Z,10.61
2019-03-31T20:07:37.831Z,10.55
2019-03-31T20:09:51.033Z,10.52
2019-03-31T20:12:03.819Z,10.45
2019-03-31T20:14:27.511Z,10.43
2019-03-31T20:16:54.391Z,10.40
2019-03-31T20:19:17.923Z,10.35
2019-03-31T20:21:36.276Z,10.29
2019-03-31T20:23:49.648Z,10.39
2019-03-31T20:26:00.847Z,10.59
2019-03-31T20:28:30.792Z,10.77
2019-03-31T20:30:56.415Z,10.91
2019-03-31T20:33:16.296Z,10.96
2019-03-31T20:35:38.042Z,11.05
2019-03-31T20:38:00.913Z,11.08
2019-03-31T20:40:24.499Z,11.07
2019-03-31T20:42:47.304Z,11.04
2019-03-31T20:44:51.064Z,11.01
2019-03-31T20:46:55.871Z,10.97
2019-03-31T20:48:59.737Z,10.99
2019-03-31T20:51:03.662Z,10.97
2019-03-31T20:53:07.485Z,10.93
2019-03-31T20:55:16.539Z,10.89
2019-03-31T20:57:16.956Z,10.89
2019-03-31T20:59:20.742Z,10.81
2019-03-31T21:01:28.672Z,10.77
2019-03-31T21:03:34.577Z,10.76
2019-03-31T21:05:38.423Z,10.71
2019-03-31T21:07:42.222Z,10.67
2019-03-31T21:09:46.029Z,10.63
2019-03-31T21:11:49.804Z,10.60
2019-03-31T21:13:56.997Z,10.56
2019-03-31T21:16:00.191Z,10.55
2019-03-31T21:18:03.977Z,10.51
2019-03-31T21:20:07.835Z,10.47
2019-03-31T21:22:13.707Z,10.45
2019-03-31T21:24:17.531Z,10.42
2019-03-31T21:26:21.364Z,10.37
2019-03-31T21:28:25.475Z,10.35
2019-03-31T21:30:35.189Z,10.27
2019-03-31T21:32:42.072Z,10.25
2019-03-31T21:34:45.881Z,10.19
2019-03-31T21:36:49.929Z,10.16
2019-03-31T21:38:53.754Z,10.13
2019-03-31T21:40:58.579Z,10.08
2019-03-31T21:43:03.490Z,10.06
2019-03-31T21:45:07.530Z,10.05
2019-03-31T21:47:12.387Z,10.03
2019-03-31T21:49:16.764Z,10.02
2019-03-31T21:51:20.609Z,9.99
2019-03-31T21:53:27.611Z,9.98
2019-03-31T21:55:31.394Z,9.95
2019-03-31T21:57:35.396Z,9.95
2019-03-31T21:59:39.177Z,9.95
2019-03-31T22:01:50.129Z,9.90
2019-03-31T22:03:54.061Z,9.87
2019-03-31T22:05:58.891Z,9.83
2019-03-31T22:08:04.047Z,9.80
2019-03-31T22:10:08.002Z,9.77
2019-03-31T22:12:14.807Z,9.73
2019-03-31T22:14:18.606Z,9.71
2019-03-31T22:16:22.420Z,9.67
2019-03-31T22:18:27.229Z,9.66
2019-03-31T22:20:31.044Z,9.63
2019-03-31T22:22:35.872Z,9.59
2019-03-31T22:24:39.674Z,9.56
2019-03-31T22:26:43.569Z,9.53
2019-03-31T22:28:47.411Z,9.50
2019-03-31T22:30:54.251Z,9.48
2019-03-31T22:33:04.641Z,9.44
2019-03-31T22:35:08.547Z,9.42
2019-03-31T22:37:12.324Z,9.38
2019-03-31T22:39:16.124Z,9.38
2019-03-31T22:41:20.097Z,9.35
2019-03-31T22:43:23.929Z,9.31
2019-03-31T22:45:30.920Z,9.29
2019-03-31T22:47:35.821Z,9.26
2019-03-31T22:49:40.557Z,9.22
2019-03-31T22:51:48.431Z,9.20
2019-03-31T22:53:53.269Z,9.19
2019-03-31T22:55:57.085Z,9.18
2019-03-31T22:58:00.887Z,9.16
2019-03-31T23:00:10.440Z,9.12
2019-03-31T23:02:14.318Z,9.09
2019-03-31T23:04:19.154Z,9.06
2019-03-31T23:06:23.989Z,9.03
2019-03-31T23:08:27.794Z,9.02
2019-03-31T23:10:31.587Z,8.98
2019-03-31T23:12:36.495Z,8.98
2019-03-31T23:14:40.311Z,8.94
2019-03-31T23:16:44.200Z,8.92
2019-03-31T23:18:54.908Z,8.89
2019-03-31T23:20:58.772Z,8.85
2019-03-31T23:23:02.609Z,8.84
2019-03-31T23:25:06.563Z,8.80
2019-03-31T23:27:10.412Z,8.78
2019-03-31T23:29:14.158Z,8.76
2019-03-31T23:31:19.023Z,8.73
2019-03-31T23:33:23.843Z,8.70
2019-03-31T23:35:27.674Z,8.67
2019-03-31T23:37:31.486Z,8.63
2019-03-31T23:39:35.327Z,8.61
2019-03-31T23:41:40.109Z,8.60
2019-03-31T23:43:43.993Z,8.57
2019-03-31T23:45:47.820Z,8.55
2019-03-31T23:47:52.654Z,8.52
2019-03-31T23:49:56.436Z,8.51
2019-03-31T23:52:00.247Z,8.47
2019-03-31T23:54:04.164Z,8.44
2019-03-31T23:56:07.959Z,8.41
2019-03-31T23:58:12.809Z,8.37
